Time;durP1;ratioP1;P1;durP2;ratioP2;P2;SDS_P1;SDS_P2;PMS_P1;PMS_P2;Temp;Humidity;BMP_temperature;BMP_pressure;BME280_temperature;BME280_humidity;BME280_pressure;Samples;Min_cycle;Max_cycle;Signal;HPM_P1;HPM_P2
2022/12/12 00:00:13;;;;;;;9.07;4.63;;;0.60;1.00;;;;;;10400584;28;20187;-79
2022/12/12 00:05:35;;;;;;;6.50;4.10;;;0.60;1.00;;;;;;10366917;28;20204;-78
2022/12/12 00:10:56;;;;;;;11.93;4.83;;;0.70;1.00;;;;;;10360219;28;20201;-80
2022/12/12 00:16:18;;;;;;;7.37;5.10;;;0.70;1.00;;;;;;10360726;28;20588;-75
2022/12/12 00:21:39;;;;;;;13.67;7.60;;;0.60;1.00;;;;;;10359907;28;20193;-79
2022/12/12 00:27:00;;;;;;;17.77;8.87;;;0.60;1.00;;;;;;10359824;28;20200;-79
2022/12/12 00:32:21;;;;;;;13.37;7.13;;;0.40;1.00;;;;;;10384288;28;20236;-76
2022/12/12 00:37:42;;;;;;;11.10;5.80;;;0.40;1.00;;;;;;10400723;28;20231;-78
2022/12/12 00:43:03;;;;;;;10.70;4.90;;;0.40;1.00;;;;;;10400202;28;20204;-78
2022/12/12 00:48:25;;;;;;;11.40;6.33;;;0.40;1.00;;;;;;10400456;28;20494;-80
2022/12/12 00:53:49;;;;;;;8.53;5.47;;;0.40;1.00;;;;;;10399945;28;20195;-81
2022/12/12 00:59:10;;;;;;;7.93;4.67;;;0.40;1.00;;;;;;10399678;28;20203;-77
2022/12/12 01:04:31;;;;;;;10.60;5.03;;;0.40;1.00;;;;;;10389151;28;20204;-77
2022/12/12 01:09:52;;;;;;;6.13;4.37;;;0.40;1.00;;;;;;10358126;28;20227;-77
2022/12/12 01:15:15;;;;;;;12.07;4.80;;;0.40;1.00;;;;;;10371176;28;20450;-78
2022/12/12 01:20:36;;;;;;;9.73;5.17;;;0.40;1.00;;;;;;10357606;28;20267;-78
2022/12/12 01:26:02;;;;;;;10.00;5.03;;;0.40;1.00;;;;;;10343327;28;20215;-77
2022/12/12 01:31:23;;;;;;;8.57;4.33;;;0.50;1.00;;;;;;10375748;28;20524;-80
2022/12/12 01:36:44;;;;;;;7.97;4.80;;;0.50;1.00;;;;;;10398619;28;20237;-77
2022/12/12 01:42:13;;;;;;;6.87;3.90;;;0.60;1.00;;;;;;10397503;28;20195;-80
2022/12/12 01:47:34;;;;;;;5.23;3.33;;;0.70;1.00;;;;;;10397172;28;20193;-78
2022/12/12 01:52:55;;;;;;;4.70;3.63;;;0.60;1.00;;;;;;10396905;28;20202;-79
2022/12/12 01:58:16;;;;;;;9.63;4.77;;;0.60;1.00;;;;;;10396368;28;20225;-80
2022/12/12 02:03:39;;;;;;;8.10;4.43;;;0.50;1.00;;;;;;10392807;28;20379;-79
2022/12/12 02:09:05;;;;;;;5.00;2.90;;;0.40;1.00;;;;;;10371955;28;20200;-80
2022/12/12 02:14:32;;;;;;;4.50;2.83;;;0.40;1.00;;;;;;10356382;28;20206;-80
2022/12/12 02:19:54;;;;;;;4.27;2.50;;;0.40;1.00;;;;;;10356261;28;20275;-79
2022/12/12 02:25:59;;;;;;;7.00;3.87;;;0.40;1.00;;;;;;10368847;28;20438;-80
2022/12/12 02:32:12;;;;;;;7.10;4.07;;;0.40;1.00;;;;;;10373927;28;20264;-80
2022/12/12 02:37:39;;;;;;;10.07;4.33;;;0.40;1.00;;;;;;10352049;28;20260;-78
2022/12/12 02:43:11;;;;;;;9.90;5.10;;;0.40;1.00;;;;;;10351786;28;20196;-77
2022/12/12 02:48:40;;;;;;;6.43;3.13;;;0.30;1.00;;;;;;10351793;28;20202;-78
2022/12/12 02:54:04;;;;;;;5.17;3.20;;;0.20;1.00;;;;;;10337120;28;20376;-77
2022/12/12 02:59:30;;;;;;;7.53;4.07;;;0.20;1.00;;;;;;10321343;28;20197;-79
2022/12/12 03:11:04;;;;;;;4.53;2.30;;;0.10;1.00;;;;;;10311239;28;20208;-80
2022/12/12 03:16:29;;;;;;;3.13;2.10;;;0.00;1.00;;;;;;10374641;28;20233;-78
2022/12/12 03:21:50;;;;;;;3.40;2.20;;;0.10;1.00;;;;;;10395180;28;20192;-80
2022/12/12 03:27:20;;;;;;;6.37;2.63;;;0.00;1.00;;;;;;10394041;28;20254;-80
2022/12/12 03:32:51;;;;;;;4.40;3.10;;;-0.10;1.00;;;;;;10394133;28;20284;-81
2022/12/12 03:38:15;;;;;;;3.73;2.47;;;-0.10;1.00;;;;;;10393484;28;20227;-78
2022/12/12 03:43:45;;;;;;;5.63;2.70;;;-0.20;1.00;;;;;;10394831;28;20441;-80
2022/12/12 03:49:14;;;;;;;5.43;2.50;;;-0.10;1.00;;;;;;10379968;28;20283;-78
2022/12/12 03:55:02;;;;;;;5.93;2.30;;;-0.10;1.00;;;;;;10407204;28;20242;-78
2022/12/12 04:00:23;;;;;;;4.83;2.50;;;-0.10;1.00;;;;;;10394533;28;20206;-79
2022/12/12 04:17:51;;;;;;;5.33;2.60;;;-0.20;1.00;;;;;;10360900;28;20443;-76
2022/12/12 04:23:34;;;;;;;3.93;2.43;;;-0.10;1.00;;;;;;10365134;28;20266;-75
2022/12/12 04:29:16;;;;;;;2.50;2.13;;;-0.10;1.00;;;;;;10400910;28;20253;-78
2022/12/12 04:35:01;;;;;;;3.93;2.20;;;-0.10;1.00;;;;;;10413671;28;20195;-80
2022/12/12 04:40:28;;;;;;;4.63;2.70;;;-0.10;1.00;;;;;;10400864;28;20200;-80
2022/12/12 04:45:57;;;;;;;4.87;2.77;;;-0.10;1.00;;;;;;10399635;28;20486;-78
2022/12/12 04:51:28;;;;;;;4.50;2.10;;;-0.10;1.00;;;;;;10400071;28;20199;-79
2022/12/12 04:56:55;;;;;;;3.23;2.67;;;-0.10;1.00;;;;;;10398995;28;20229;-79
2022/12/12 05:02:39;;;;;;;3.77;2.60;;;0.00;1.00;;;;;;10399776;28;20212;-78
2022/12/12 05:08:09;;;;;;;5.77;2.60;;;0.00;1.00;;;;;;10363752;28;20203;-76
2022/12/12 05:13:32;;;;;;;5.83;3.43;;;0.00;1.00;;;;;;10373882;28;20205;-78
2022/12/12 05:18:53;;;;;;;6.87;3.60;;;0.00;1.00;;;;;;10356210;28;20610;-79
2022/12/12 05:24:14;;;;;;;5.50;3.37;;;0.00;1.00;;;;;;10372855;28;20195;-80
2022/12/12 05:29:35;;;;;;;4.17;3.17;;;0.10;1.00;;;;;;10398272;28;20253;-78
2022/12/12 05:34:56;;;;;;;5.03;3.23;;;0.10;1.00;;;;;;10398103;28;20221;-80
2022/12/12 05:40:19;;;;;;;9.17;3.43;;;0.20;1.00;;;;;;10398330;28;20222;-77
2022/12/12 05:45:40;;;;;;;6.53;3.47;;;0.20;1.00;;;;;;10397896;28;20379;-82
2022/12/12 05:51:01;;;;;;;7.40;4.77;;;0.20;1.00;;;;;;10396817;28;20494;-79
2022/12/12 05:56:22;;;;;;;13.87;7.90;;;0.20;1.00;;;;;;10396055;28;20256;-80
2022/12/12 06:01:44;;;;;;;7.73;4.63;;;0.20;1.00;;;;;;10396033;28;20227;-81
2022/12/12 06:07:05;;;;;;;6.10;3.43;;;0.10;1.00;;;;;;10366131;28;20506;-80
2022/12/12 06:12:27;;;;;;;7.50;3.20;;;0.10;1.00;;;;;;10355554;28;20436;-80
2022/12/12 06:17:50;;;;;;;5.93;3.90;;;0.10;1.00;;;;;;10354832;28;20310;-77
2022/12/12 06:23:11;;;;;;;7.90;4.00;;;0.20;1.00;;;;;;10350147;28;20199;-80
2022/12/12 06:28:33;;;;;;;6.87;3.43;;;0.20;1.00;;;;;;10395259;28;20297;-76
2022/12/12 06:33:54;;;;;;;9.33;4.40;;;0.30;1.00;;;;;;10395132;28;20188;-80
2022/12/12 06:39:15;;;;;;;6.47;3.60;;;0.50;1.00;;;;;;10381364;28;20243;-81
2022/12/12 06:44:36;;;;;;;6.03;3.40;;;0.50;1.00;;;;;;10396078;28;20195;-78
2022/12/12 06:49:57;;;;;;;8.47;4.00;;;0.50;1.00;;;;;;10394523;28;20385;-77
2022/12/12 06:55:18;;;;;;;7.00;3.27;;;0.40;1.00;;;;;;10394261;28;20219;-78
2022/12/12 07:00:40;;;;;;;5.53;3.87;;;0.40;1.00;;;;;;10408028;28;20195;-78
2022/12/12 07:06:01;;;;;;;7.03;4.43;;;0.40;1.00;;;;;;10370254;28;20210;-77
2022/12/12 07:11:24;;;;;;;8.50;6.43;;;0.40;1.00;;;;;;10354474;28;20195;-78
2022/12/12 07:16:45;;;;;;;10.20;5.67;;;0.30;1.00;;;;;;10353072;28;20219;-76
2022/12/12 07:22:07;;;;;;;34.93;11.37;;;0.30;1.00;;;;;;10355684;28;20274;-75
2022/12/12 07:27:30;;;;;;;22.67;9.10;;;0.40;1.00;;;;;;10395145;28;20222;-77
2022/12/12 07:32:51;;;;;;;27.73;12.57;;;0.50;1.00;;;;;;10393495;28;20227;-76
2022/12/12 07:38:12;;;;;;;19.07;8.97;;;0.60;1.00;;;;;;10379798;28;20221;-80
2022/12/12 07:43:35;;;;;;;14.97;7.10;;;0.70;1.00;;;;;;10398757;28;20441;-77
2022/12/12 07:48:59;;;;;;;9.80;5.07;;;0.70;1.00;;;;;;10388393;28;20199;-79
2022/12/12 07:54:20;;;;;;;13.63;4.90;;;0.60;1.00;;;;;;10401042;28;20250;-76
2022/12/12 07:59:42;;;;;;;15.00;6.30;;;0.60;1.00;;;;;;10400800;28;20248;-78
2022/12/12 08:05:04;;;;;;;16.83;6.83;;;0.70;1.00;;;;;;10385511;28;20214;-75
2022/12/12 08:10:25;;;;;;;12.33;5.33;;;0.80;1.00;;;;;;10381006;28;20195;-76
2022/12/12 08:15:46;;;;;;;42.27;14.63;;;0.80;1.00;;;;;;10376805;28;20216;-79
2022/12/12 08:21:09;;;;;;;13.20;7.17;;;0.80;1.00;;;;;;10359995;28;20204;-79
2022/12/12 08:26:31;;;;;;;14.53;8.07;;;0.90;1.00;;;;;;10373486;28;20191;-82
2022/12/12 08:31:52;;;;;;;21.57;7.60;;;0.90;1.00;;;;;;10360176;28;20294;-83
2022/12/12 08:37:14;;;;;;;11.10;6.50;;;1.00;1.00;;;;;;10369264;28;20263;-77
2022/12/12 08:42:35;;;;;;;7.73;4.20;;;1.00;1.00;;;;;;10379599;28;20206;-78
2022/12/12 08:47:57;;;;;;;8.43;5.00;;;1.10;1.00;;;;;;10394521;28;20208;-79
2022/12/12 08:53:18;;;;;;;14.47;6.03;;;1.30;1.00;;;;;;10393688;28;20194;-79
2022/12/12 08:58:39;;;;;;;17.23;8.07;;;1.40;1.00;;;;;;10393815;28;20219;-77
2022/12/12 09:04:01;;;;;;;30.23;10.80;;;1.50;1.00;;;;;;10389491;28;20202;-77
2022/12/12 09:09:22;;;;;;;15.73;7.10;;;1.60;1.00;;;;;;10394589;28;20443;-79
2022/12/12 09:14:43;;;;;;;22.53;7.77;;;1.60;1.00;;;;;;10392816;28;20482;-78
2022/12/12 09:20:05;;;;;;;27.60;9.30;;;1.90;1.00;;;;;;10392760;28;20226;-78
2022/12/12 09:25:27;;;;;;;12.57;6.70;;;2.10;1.00;;;;;;10392706;28;20253;-79
2022/12/12 09:30:49;;;;;;;13.77;7.17;;;2.20;1.00;;;;;;10392003;28;20239;-78
2022/12/12 09:36:13;;;;;;;15.40;6.90;;;2.30;1.00;;;;;;10387188;28;20223;-78
2022/12/12 09:41:35;;;;;;;7.60;4.43;;;2.30;1.00;;;;;;10391510;28;20227;-80
2022/12/12 09:47:06;;;;;;;9.83;5.27;;;2.30;1.00;;;;;;10393669;28;20193;-77
2022/12/12 09:52:34;;;;;;;7.33;4.20;;;2.20;1.00;;;;;;10377633;28;20199;-80
2022/12/12 09:58:27;;;;;;;7.03;4.67;;;2.10;1.00;;;;;;10391306;28;20235;-77
2022/12/12 10:04:03;;;;;;;9.87;5.70;;;2.20;1.00;;;;;;10376645;28;20211;-78
2022/12/12 10:09:33;;;;;;;8.97;4.30;;;2.10;1.00;;;;;;10390850;28;20215;-78
2022/12/12 10:15:00;;;;;;;8.10;5.10;;;2.10;1.00;;;;;;10363346;28;20239;-79
2022/12/12 10:20:28;;;;;;;16.83;8.13;;;2.10;1.00;;;;;;10390274;28;20205;-76
2022/12/12 10:25:55;;;;;;;15.07;6.37;;;2.20;1.00;;;;;;10390579;28;20280;-78
2022/12/12 10:31:40;;;;;;;8.93;5.07;;;2.40;1.00;;;;;;10390852;28;20282;-79
2022/12/12 10:37:05;;;;;;;7.40;4.80;;;2.30;1.00;;;;;;10388098;28;20249;-78
2022/12/12 10:42:46;;;;;;;14.30;8.30;;;2.30;1.00;;;;;;10389952;28;20406;-74
2022/12/12 10:48:07;;;;;;;19.03;9.30;;;2.20;1.00;;;;;;10389580;28;20307;-77
2022/12/12 10:53:31;;;;;;;12.77;6.67;;;2.10;1.00;;;;;;10350414;28;20276;-82
2022/12/12 10:59:01;;;;;;;17.93;6.17;;;2.10;1.00;;;;;;10348337;28;20299;-75
2022/12/12 11:04:23;;;;;;;8.70;4.50;;;2.10;1.00;;;;;;10357961;28;20211;-78
2022/12/12 11:09:45;;;;;;;8.60;4.50;;;2.20;1.00;;;;;;10375039;28;20194;-79
2022/12/12 11:15:18;;;;;;;8.43;4.80;;;2.20;1.00;;;;;;10375870;28;20196;-82
2022/12/12 11:20:48;;;;;;;9.03;4.30;;;2.40;1.00;;;;;;10383515;28;20206;-77
2022/12/12 11:26:20;;;;;;;10.73;5.43;;;2.50;1.00;;;;;;10397251;28;20207;-78
2022/12/12 11:31:42;;;;;;;6.07;3.90;;;2.50;1.00;;;;;;10389492;28;20261;-79
2022/12/12 11:37:04;;;;;;;9.53;4.83;;;2.40;1.00;;;;;;10377488;28;20232;-78
2022/12/12 11:42:33;;;;;;;14.63;6.87;;;2.40;1.00;;;;;;10396306;28;20779;-75
2022/12/12 11:47:54;;;;;;;13.07;5.63;;;2.30;1.00;;;;;;10396186;28;20205;-78
2022/12/12 11:53:15;;;;;;;7.27;4.43;;;2.20;1.00;;;;;;10396690;28;20215;-78
2022/12/12 11:58:44;;;;;;;10.60;5.50;;;2.30;1.00;;;;;;10395823;28;20597;-77
2022/12/12 12:04:28;;;;;;;8.77;4.43;;;2.30;1.00;;;;;;10395465;28;20193;-78
2022/12/12 12:09:56;;;;;;;12.63;5.73;;;2.50;1.00;;;;;;10394644;28;20411;-79
2022/12/12 12:15:34;;;;;;;15.40;6.10;;;2.50;1.00;;;;;;10396364;28;20205;-77
2022/12/12 12:21:22;;;;;;;14.20;6.80;;;2.60;1.00;;;;;;10394924;28;20511;-78
2022/12/12 12:27:01;;;;;;;14.60;6.70;;;2.50;1.00;;;;;;10394269;28;20203;-78
2022/12/12 12:32:33;;;;;;;11.00;5.20;;;2.50;1.00;;;;;;10394571;28;20255;-78
2022/12/12 12:38:08;;;;;;;13.83;5.07;;;2.50;99.90;;;;;;10389602;28;20243;-77
2022/12/12 12:44:01;;;;;;;15.50;7.17;;;2.40;1.00;;;;;;10396241;28;20193;-84
2022/12/12 12:49:31;;;;;;;8.70;5.47;;;2.30;1.00;;;;;;10393787;28;20203;-77
2022/12/12 12:54:55;;;;;;;14.93;6.93;;;2.30;1.00;;;;;;10394846;28;20203;-76
2022/12/12 13:00:24;;;;;;;14.40;6.80;;;2.30;1.00;;;;;;10395086;28;20230;-79
2022/12/12 13:05:56;;;;;;;17.73;6.93;;;2.30;99.90;;;;;;10392895;28;20254;-78
2022/12/12 13:11:24;;;;;;;15.13;6.23;;;2.30;1.00;;;;;;10392666;28;20268;-79
2022/12/12 13:16:47;;;;;;;14.30;6.20;;;2.10;1.00;;;;;;10429643;28;20269;-77
2022/12/12 13:22:22;;;;;;;9.97;5.57;;;2.10;1.00;;;;;;10420453;28;20217;-78
2022/12/12 13:27:50;;;;;;;19.00;9.00;;;1.90;1.00;;;;;;10409875;28;20200;-78
2022/12/12 13:33:17;;;;;;;21.67;10.50;;;1.90;1.00;;;;;;10391972;28;20202;-79
2022/12/12 13:38:39;;;;;;;15.70;7.37;;;1.90;1.00;;;;;;10365813;28;20244;-80
2022/12/12 13:44:00;;;;;;;12.27;6.47;;;1.80;1.00;;;;;;10366551;28;20480;-78
2022/12/12 13:49:28;;;;;;;11.10;5.73;;;1.80;1.00;;;;;;10353024;28;20192;-78
2022/12/12 13:54:50;;;;;;;16.00;7.47;;;1.90;1.00;;;;;;10367028;28;20251;-78
2022/12/12 14:00:16;;;;;;;16.77;7.73;;;1.90;1.00;;;;;;10359430;28;20310;-78
2022/12/12 14:05:40;;;;;;;8.03;4.63;;;1.90;1.00;;;;;;10391692;28;20219;-79
2022/12/12 14:11:04;;;;;;;8.87;4.87;;;1.80;1.00;;;;;;10377159;28;20226;-77
2022/12/12 14:16:26;;;;;;;11.63;6.63;;;1.70;1.00;;;;;;10390937;28;20232;-79
2022/12/12 14:22:28;;;;;;;14.57;6.60;;;1.60;1.00;;;;;;10391444;28;20240;-77
2022/12/12 14:28:26;;;;;;;15.67;7.67;;;1.50;1.00;;;;;;10391855;28;20197;-76
2022/12/12 14:34:35;;;;;;;19.70;8.27;;;1.50;1.00;;;;;;10390876;28;20213;-77
2022/12/12 14:40:26;;;;;;;31.40;16.27;;;1.40;1.00;;;;;;10305396;28;20265;-78
2022/12/12 14:46:17;;;;;;;23.40;10.93;;;1.40;1.00;;;;;;10305598;28;20228;-77
2022/12/12 14:51:58;;;;;;;12.50;6.27;;;1.30;1.00;;;;;;10305665;28;20318;-78
2022/12/12 14:57:40;;;;;;;12.97;6.17;;;1.30;1.00;;;;;;10305637;28;20467;-77
2022/12/12 15:03:38;;;;;;;17.47;7.73;;;1.30;99.90;;;;;;10294673;28;20205;-77
2022/12/12 15:09:23;;;;;;;16.53;8.60;;;1.10;99.90;;;;;;10294168;28;20215;-77
2022/12/12 15:14:48;;;;;;;13.43;6.80;;;1.10;70.60;;;;;;10278691;28;20210;-77
2022/12/12 15:20:19;;;;;;;11.77;6.07;;;1.00;99.90;;;;;;10348979;28;20322;-79
2022/12/12 15:25:46;;;;;;;20.17;9.80;;;1.00;1.00;;;;;;10348223;28;20525;-80
2022/12/12 15:31:12;;;;;;;17.73;8.73;;;1.00;48.50;;;;;;10361413;28;20231;-79
2022/12/12 15:36:34;;;;;;;12.97;6.70;;;0.90;99.90;;;;;;10379756;28;20307;-79
2022/12/12 15:41:55;;;;;;;35.87;16.30;;;0.90;1.00;;;;;;10388996;28;20238;-80
2022/12/12 15:47:18;;;;;;;20.47;10.97;;;0.70;1.00;;;;;;10389184;28;20211;-79
2022/12/12 15:52:41;;;;;;;19.90;10.70;;;0.80;1.00;;;;;;10388964;28;20218;-78
2022/12/12 15:58:02;;;;;;;27.77;10.80;;;0.90;1.00;;;;;;10388258;28;20269;-79
2022/12/12 16:03:23;;;;;;;20.50;9.23;;;0.90;50.90;;;;;;10391837;28;20241;-82
2022/12/12 16:08:58;;;;;;;13.83;6.93;;;1.00;1.00;;;;;;10359348;28;20206;-86
2022/12/12 16:14:35;;;;;;;24.87;11.23;;;0.90;93.70;;;;;;10387216;28;20367;-80
2022/12/12 16:20:05;;;;;;;28.17;12.50;;;0.80;1.00;;;;;;10373824;28;20466;-80
2022/12/12 16:25:29;;;;;;;31.20;14.80;;;0.60;99.90;;;;;;10386279;28;20222;-80
2022/12/12 16:31:01;;;;;;;22.50;10.33;;;0.50;99.90;;;;;;10400172;28;20233;-80
2022/12/12 16:36:23;;;;;;;18.37;7.97;;;0.50;99.90;;;;;;10399762;28;20211;-79
2022/12/12 16:41:44;;;;;;;15.03;7.80;;;0.50;1.00;;;;;;10380991;28;20420;-79
2022/12/12 16:47:18;;;;;;;21.60;8.93;;;0.60;1.00;;;;;;10361670;28;20200;-80
2022/12/12 16:52:39;;;;;;;17.23;8.20;;;0.70;1.00;;;;;;10359974;28;20205;-80
2022/12/12 16:58:00;;;;;;;27.77;9.20;;;0.60;1.00;;;;;;10358633;28;20601;-80
2022/12/12 17:03:22;;;;;;;27.13;9.53;;;0.60;1.00;;;;;;10370161;28;20199;-80
2022/12/12 17:08:43;;;;;;;17.07;9.03;;;0.60;1.00;;;;;;10384655;28;20207;-81
2022/12/12 17:14:04;;;;;;;19.50;8.77;;;0.60;1.00;;;;;;10397133;28;20199;-80
2022/12/12 17:19:26;;;;;;;15.43;7.63;;;0.60;1.00;;;;;;10398230;28;20254;-78
2022/12/12 17:24:47;;;;;;;17.07;8.20;;;0.70;1.00;;;;;;10398112;28;20472;-79
2022/12/12 17:30:09;;;;;;;17.17;6.60;;;0.80;1.00;;;;;;10383780;28;20251;-80
2022/12/12 17:35:30;;;;;;;21.13;7.13;;;0.80;1.00;;;;;;10398710;28;20200;-79
2022/12/12 17:40:52;;;;;;;12.07;6.43;;;0.70;1.00;;;;;;10392941;28;20256;-80
2022/12/12 17:46:15;;;;;;;18.37;7.30;;;0.60;1.00;;;;;;10373096;28;20199;-79
2022/12/12 17:51:36;;;;;;;9.30;5.07;;;0.60;1.00;;;;;;10357869;28;20275;-79
2022/12/12 17:56:57;;;;;;;11.07;5.20;;;0.50;1.00;;;;;;10372436;28;20215;-79
2022/12/12 18:02:19;;;;;;;13.60;6.07;;;0.40;1.00;;;;;;10375298;28;20253;-79
2022/12/12 18:07:40;;;;;;;6.97;3.87;;;0.30;1.00;;;;;;10382463;28;20221;-79
2022/12/12 18:13:01;;;;;;;16.60;5.70;;;0.10;99.90;;;;;;10397158;28;20203;-80
2022/12/12 18:18:24;;;;;;;16.23;6.43;;;0.00;99.90;;;;;;10382042;28;20253;-79
2022/12/12 18:23:45;;;;;;;18.57;6.83;;;-0.10;99.90;;;;;;10395778;28;20214;-79
2022/12/12 18:29:07;;;;;;;20.20;8.07;;;-0.20;99.90;;;;;;10382289;28;20570;-78
2022/12/12 18:34:28;;;;;;;19.10;8.60;;;-0.20;99.90;;;;;;10395438;28;20214;-80
2022/12/12 18:39:50;;;;;;;20.00;6.20;;;0.00;85.20;;;;;;10394936;28;20532;-79
2022/12/12 18:45:11;;;;;;;24.77;8.57;;;0.10;1.00;;;;;;10350299;28;20274;-80
2022/12/12 18:50:32;;;;;;;21.60;7.93;;;0.00;1.00;;;;;;10355401;28;20211;-79
2022/12/12 18:55:53;;;;;;;25.10;7.77;;;0.00;99.90;;;;;;10340873;28;20274;-80
2022/12/12 19:01:23;;;;;;;21.43;7.70;;;0.00;1.00;;;;;;10355275;28;20258;-78
2022/12/12 19:06:45;;;;;;;14.97;5.90;;;-0.20;1.00;;;;;;10378548;28;20205;-78
2022/12/12 19:12:06;;;;;;;14.07;6.33;;;-0.20;99.90;;;;;;10380563;28;20203;-80
2022/12/12 19:17:28;;;;;;;16.80;7.50;;;-0.30;99.90;;;;;;10380801;28;20229;-78
2022/12/12 19:22:49;;;;;;;15.17;5.53;;;-0.30;99.90;;;;;;10394129;28;20201;-78
2022/12/12 19:28:11;;;;;;;17.87;7.70;;;-0.40;1.00;;;;;;10379521;28;20272;-78
2022/12/12 19:33:32;;;;;;;12.00;5.50;;;-0.50;1.00;;;;;;10380338;28;20225;-78
2022/12/12 19:38:56;;;;;;;8.20;4.40;;;-0.40;1.00;;;;;;10398669;28;20278;-78
2022/12/12 19:44:17;;;;;;;10.30;4.60;;;-0.40;1.00;;;;;;10367655;28;20494;-80
2022/12/12 19:49:39;;;;;;;10.53;3.77;;;-0.40;1.00;;;;;;10363263;28;20225;-80
2022/12/12 19:55:00;;;;;;;13.83;4.23;;;-0.30;99.90;;;;;;10363517;28;20271;-79
2022/12/12 20:00:21;;;;;;;23.77;7.97;;;-0.30;1.00;;;;;;10397957;28;20439;-79
2022/12/12 20:05:42;;;;;;;20.50;8.47;;;-0.20;1.00;;;;;;10387084;28;20204;-78
2022/12/12 20:11:06;;;;;;;12.97;5.50;;;-0.30;1.00;;;;;;10359255;28;20199;-79
2022/12/12 20:16:28;;;;;;;14.57;6.40;;;-0.30;99.90;;;;;;10387277;28;20198;-79
2022/12/12 20:21:52;;;;;;;20.33;8.47;;;-0.40;1.00;;;;;;10372912;28;20195;-79
2022/12/12 20:27:21;;;;;;;16.23;5.50;;;-0.40;48.90;;;;;;10387799;28;20244;-79
2022/12/12 20:32:43;;;;;;;13.10;5.23;;;-0.50;99.90;;;;;;10386226;28;20274;-78
2022/12/12 20:38:04;;;;;;;13.03;5.57;;;-0.50;1.00;;;;;;10384997;28;20225;-78
2022/12/12 20:43:28;;;;;;;7.33;3.57;;;-0.40;1.00;;;;;;10386842;28;20385;-78
2022/12/12 20:48:50;;;;;;;8.97;4.27;;;-0.30;1.00;;;;;;10374887;28;20204;-79
2022/12/12 20:54:13;;;;;;;7.93;3.30;;;-0.30;99.90;;;;;;10361308;28;20222;-80
2022/12/12 20:59:34;;;;;;;10.90;3.77;;;-0.20;1.00;;;;;;10358592;28;20228;-78
2022/12/12 21:04:55;;;;;;;7.53;3.23;;;-0.10;99.90;;;;;;10367911;28;20275;-77
2022/12/12 21:10:17;;;;;;;10.17;4.40;;;-0.20;99.90;;;;;;10358060;28;20197;-77
2022/12/12 21:15:38;;;;;;;8.37;3.60;;;-0.30;1.00;;;;;;10388624;28;20208;-78
2022/12/12 21:20:59;;;;;;;4.83;2.93;;;-0.30;99.90;;;;;;10399417;28;20217;-79
2022/12/12 21:26:23;;;;;;;7.57;3.93;;;-0.30;1.00;;;;;;10384365;28;20492;-78
2022/12/12 21:31:48;;;;;;;9.90;3.80;;;-0.40;99.90;;;;;;10398719;28;20229;-78
2022/12/12 21:37:11;;;;;;;8.43;3.40;;;-0.40;99.90;;;;;;10382162;28;20455;-78
2022/12/12 21:42:33;;;;;;;14.10;4.77;;;-0.30;99.90;;;;;;10397661;28;20384;-77
2022/12/12 21:47:54;;;;;;;11.43;4.47;;;-0.30;99.90;;;;;;10382616;28;20200;-77
2022/12/12 21:53:34;;;;;;;7.57;3.30;;;-0.40;93.20;;;;;;10383320;28;20577;-78
2022/12/12 21:58:56;;;;;;;9.10;4.17;;;-0.40;99.90;;;;;;10382927;28;20317;-80
2022/12/12 22:04:18;;;;;;;5.13;2.70;;;-0.40;1.00;;;;;;10396733;28;20189;-80
2022/12/12 22:09:40;;;;;;;5.20;2.20;;;-0.60;1.00;;;;;;10382466;28;20198;-80
2022/12/12 22:15:01;;;;;;;5.90;3.30;;;-0.70;99.90;;;;;;10396241;28;20197;-77
2022/12/12 22:20:23;;;;;;;8.87;3.93;;;-0.90;1.00;;;;;;10396318;28;20418;-78
2022/12/12 22:25:44;;;;;;;8.07;3.23;;;-0.90;1.00;;;;;;10397053;28;20241;-80
2022/12/12 22:31:05;;;;;;;5.63;2.80;;;-0.90;1.00;;;;;;10395619;28;20275;-78
2022/12/12 22:36:30;;;;;;;7.10;3.43;;;-0.90;1.00;;;;;;10408746;28;20508;-78
2022/12/12 22:41:52;;;;;;;10.30;4.20;;;-1.00;1.00;;;;;;10395614;28;20469;-78
2022/12/12 22:47:14;;;;;;;9.77;3.87;;;-1.00;1.00;;;;;;10364035;28;20237;-79
2022/12/12 22:52:35;;;;;;;13.27;5.10;;;-1.00;1.00;;;;;;10340730;28;20199;-79
2022/12/12 22:57:57;;;;;;;7.53;3.40;;;-1.00;40.20;;;;;;10354250;28;20554;-78
2022/12/12 23:03:20;;;;;;;7.27;3.80;;;-1.00;1.00;;;;;;10354422;28;20192;-79
2022/12/12 23:08:41;;;;;;;5.77;3.50;;;-1.00;1.00;;;;;;10395069;28;20224;-79
2022/12/12 23:14:05;;;;;;;6.03;3.03;;;-1.10;99.90;;;;;;10394440;28;20193;-79
2022/12/12 23:19:27;;;;;;;11.07;4.53;;;-1.20;99.90;;;;;;10396799;28;20228;-78
2022/12/12 23:24:49;;;;;;;9.63;4.03;;;-1.10;1.00;;;;;;10396777;28;20208;-80
2022/12/12 23:30:10;;;;;;;5.37;3.40;;;-1.00;1.00;;;;;;10379858;28;20275;-77
2022/12/12 23:35:31;;;;;;;12.20;5.03;;;-1.00;99.90;;;;;;10394601;28;20419;-78
2022/12/12 23:40:52;;;;;;;3.00;2.60;;;-1.00;99.90;;;;;;10393954;28;20461;-78
2022/12/12 23:46:32;;;;;;;3.87;2.70;;;-1.10;90.10;;;;;;10374616;28;20281;-78
2022/12/12 23:51:56;;;;;;;6.63;2.87;;;-1.20;99.90;;;;;;10339438;28;20203;-78
2022/12/12 23:57:17;;;;;;;5.70;3.03;;;-1.10;99.90;;;;;;10354137;28;20198;-77
